sensor_id;sensor_type;location;lat;lon;timestamp;temperature;humidity
8858;DHT22;4465;50.904;4.696;2023-07-28T00:02:03;17.90;99.90
8858;DHT22;4465;50.904;4.696;2023-07-28T00:04:29;17.90;99.90
8858;DHT22;4465;50.904;4.696;2023-07-28T00:06:57;18.00;99.90
8858;DHT22;4465;50.904;4.696;2023-07-28T00:09:23;17.90;99.90
8858;DHT22;4465;50.904;4.696;2023-07-28T00:11:49;18.00;99.90
8858;DHT22;4465;50.904;4.696;2023-07-28T00:14:15;17.90;99.90
8858;DHT22;4465;50.904;4.696;2023-07-28T00:16:43;17.90;99.90
8858;DHT22;4465;50.904;4.696;2023-07-28T00:19:09;17.90;99.90
8858;DHT22;4465;50.904;4.696;2023-07-28T00:21:37;18.00;99.90
8858;DHT22;4465;50.904;4.696;2023-07-28T00:24:04;18.00;99.90
8858;DHT22;4465;50.904;4.696;2023-07-28T00:26:32;18.00;99.90
8858;DHT22;4465;50.904;4.696;2023-07-28T00:29:00;18.00;99.90
8858;DHT22;4465;50.904;4.696;2023-07-28T00:31:26;18.00;99.90
8858;DHT22;4465;50.904;4.696;2023-07-28T00:33:57;18.00;99.90
8858;DHT22;4465;50.904;4.696;2023-07-28T00:36:24;18.00;99.90
8858;DHT22;4465;50.904;4.696;2023-07-28T00:38:50;18.00;99.90
8858;DHT22;4465;50.904;4.696;2023-07-28T00:41:16;18.00;99.90
8858;DHT22;4465;50.904;4.696;2023-07-28T00:43:42;18.00;99.90
8858;DHT22;4465;50.904;4.696;2023-07-28T00:46:12;18.00;99.90
8858;DHT22;4465;50.904;4.696;2023-07-28T00:48:39;18.00;99.90
8858;DHT22;4465;50.904;4.696;2023-07-28T00:51:10;18.00;99.90
8858;DHT22;4465;50.904;4.696;2023-07-28T00:53:39;18.00;99.90
8858;DHT22;4465;50.904;4.696;2023-07-28T00:56:06;18.00;99.90
8858;DHT22;4465;50.904;4.696;2023-07-28T00:58:35;18.00;99.90
8858;DHT22;4465;50.904;4.696;2023-07-28T01:01:02;18.00;99.90
8858;DHT22;4465;50.904;4.696;2023-07-28T01:03:28;18.00;99.90
8858;DHT22;4465;50.904;4.696;2023-07-28T01:09:01;18.00;99.90
8858;DHT22;4465;50.904;4.696;2023-07-28T01:11:34;18.00;99.90
8858;DHT22;4465;50.904;4.696;2023-07-28T01:14:00;18.00;99.90
8858;DHT22;4465;50.904;4.696;2023-07-28T01:16:26;18.10;99.90
8858;DHT22;4465;50.904;4.696;2023-07-28T01:18:52;18.00;99.90
8858;DHT22;4465;50.904;4.696;2023-07-28T01:21:22;18.10;99.90
8858;DHT22;4465;50.904;4.696;2023-07-28T01:26:42;18.10;99.90
8858;DHT22;4465;50.904;4.696;2023-07-28T01:29:09;18.10;99.90
8858;DHT22;4465;50.904;4.696;2023-07-28T01:31:39;18.00;99.90
8858;DHT22;4465;50.904;4.696;2023-07-28T01:34:06;18.00;99.90
8858;DHT22;4465;50.904;4.696;2023-07-28T01:36:31;18.10;99.90
8858;DHT22;4465;50.904;4.696;2023-07-28T01:39:00;18.00;99.90
8858;DHT22;4465;50.904;4.696;2023-07-28T01:41:26;18.00;99.90
8858;DHT22;4465;50.904;4.696;2023-07-28T01:43:52;18.10;99.90
8858;DHT22;4465;50.904;4.696;2023-07-28T01:46:23;18.10;99.90
8858;DHT22;4465;50.904;4.696;2023-07-28T01:48:49;18.10;99.90
8858;DHT22;4465;50.904;4.696;2023-07-28T01:51:15;18.10;99.90
8858;DHT22;4465;50.904;4.696;2023-07-28T01:53:41;18.10;99.90
8858;DHT22;4465;50.904;4.696;2023-07-28T01:56:07;18.10;99.90
8858;DHT22;4465;50.904;4.696;2023-07-28T01:58:33;18.10;99.90
8858;DHT22;4465;50.904;4.696;2023-07-28T02:00:59;18.10;99.90
8858;DHT22;4465;50.904;4.696;2023-07-28T02:03:26;18.10;99.90
8858;DHT22;4465;50.904;4.696;2023-07-28T02:05:55;18.10;99.90
8858;DHT22;4465;50.904;4.696;2023-07-28T02:08:21;18.10;99.90
8858;DHT22;4465;50.904;4.696;2023-07-28T02:10:52;18.10;99.90
8858;DHT22;4465;50.904;4.696;2023-07-28T02:13:18;18.10;99.90
8858;DHT22;4465;50.904;4.696;2023-07-28T02:15:44;18.10;99.90
8858;DHT22;4465;50.904;4.696;2023-07-28T02:18:12;18.10;99.90
8858;DHT22;4465;50.904;4.696;2023-07-28T02:20:40;18.10;99.90
8858;DHT22;4465;50.904;4.696;2023-07-28T02:23:06;18.10;99.90
8858;DHT22;4465;50.904;4.696;2023-07-28T02:25:32;18.10;99.90
8858;DHT22;4465;50.904;4.696;2023-07-28T02:27:58;18.10;99.90
8858;DHT22;4465;50.904;4.696;2023-07-28T02:30:24;18.10;99.90
8858;DHT22;4465;50.904;4.696;2023-07-28T02:32:50;18.10;99.90
8858;DHT22;4465;50.904;4.696;2023-07-28T02:35:18;18.10;99.90
8858;DHT22;4465;50.904;4.696;2023-07-28T02:37:44;18.10;99.90
8858;DHT22;4465;50.904;4.696;2023-07-28T02:40:12;18.10;99.90
8858;DHT22;4465;50.904;4.696;2023-07-28T02:42:38;18.10;99.90
8858;DHT22;4465;50.904;4.696;2023-07-28T02:45:07;18.10;99.90
8858;DHT22;4465;50.904;4.696;2023-07-28T02:47:33;18.10;99.90
8858;DHT22;4465;50.904;4.696;2023-07-28T02:49:59;18.10;99.90
8858;DHT22;4465;50.904;4.696;2023-07-28T02:52:25;18.10;99.90
8858;DHT22;4465;50.904;4.696;2023-07-28T02:54:51;18.10;99.90
8858;DHT22;4465;50.904;4.696;2023-07-28T02:57:17;18.10;99.90
8858;DHT22;4465;50.904;4.696;2023-07-28T02:59:43;18.10;99.90
8858;DHT22;4465;50.904;4.696;2023-07-28T03:02:08;18.10;99.90
8858;DHT22;4465;50.904;4.696;2023-07-28T03:04:34;18.10;99.90
8858;DHT22;4465;50.904;4.696;2023-07-28T03:07:00;18.10;99.90
8858;DHT22;4465;50.904;4.696;2023-07-28T03:09:26;18.10;99.90
8858;DHT22;4465;50.904;4.696;2023-07-28T03:11:52;18.10;99.90
8858;DHT22;4465;50.904;4.696;2023-07-28T03:14:20;18.10;99.90
8858;DHT22;4465;50.904;4.696;2023-07-28T03:16:46;18.10;99.90
8858;DHT22;4465;50.904;4.696;2023-07-28T03:19:12;18.10;99.90
8858;DHT22;4465;50.904;4.696;2023-07-28T03:21:38;18.10;99.90
8858;DHT22;4465;50.904;4.696;2023-07-28T03:24:04;18.10;99.90
8858;DHT22;4465;50.904;4.696;2023-07-28T03:26:30;18.10;99.90
8858;DHT22;4465;50.904;4.696;2023-07-28T03:28:56;18.10;99.90
8858;DHT22;4465;50.904;4.696;2023-07-28T03:31:25;18.20;99.90
8858;DHT22;4465;50.904;4.696;2023-07-28T03:33:50;18.10;99.90
8858;DHT22;4465;50.904;4.696;2023-07-28T03:36:21;18.20;99.90
8858;DHT22;4465;50.904;4.696;2023-07-28T03:38:47;18.10;99.90
8858;DHT22;4465;50.904;4.696;2023-07-28T03:41:13;18.10;99.90
8858;DHT22;4465;50.904;4.696;2023-07-28T03:43:40;18.10;99.90
8858;DHT22;4465;50.904;4.696;2023-07-28T03:46:08;18.10;99.90
8858;DHT22;4465;50.904;4.696;2023-07-28T03:48:34;18.10;99.90
8858;DHT22;4465;50.904;4.696;2023-07-28T03:51:00;18.20;99.90
8858;DHT22;4465;50.904;4.696;2023-07-28T03:53:26;18.10;99.90
8858;DHT22;4465;50.904;4.696;2023-07-28T03:55:52;18.10;99.90
8858;DHT22;4465;50.904;4.696;2023-07-28T03:58:26;18.10;99.90
8858;DHT22;4465;50.904;4.696;2023-07-28T04:00:53;18.10;99.90
8858;DHT22;4465;50.904;4.696;2023-07-28T04:03:21;18.10;99.90
8858;DHT22;4465;50.904;4.696;2023-07-28T04:05:47;18.10;99.90
8858;DHT22;4465;50.904;4.696;2023-07-28T04:08:13;18.20;99.90
8858;DHT22;4465;50.904;4.696;2023-07-28T04:10:39;18.10;99.90
8858;DHT22;4465;50.904;4.696;2023-07-28T04:13:05;18.10;99.90
8858;DHT22;4465;50.904;4.696;2023-07-28T04:15:31;18.20;99.90
8858;DHT22;4465;50.904;4.696;2023-07-28T04:17:57;18.10;99.90
8858;DHT22;4465;50.904;4.696;2023-07-28T04:20:22;18.10;99.90
8858;DHT22;4465;50.904;4.696;2023-07-28T04:22:48;18.10;99.90
8858;DHT22;4465;50.904;4.696;2023-07-28T04:25:16;18.10;99.90
8858;DHT22;4465;50.904;4.696;2023-07-28T04:27:45;18.10;99.90
8858;DHT22;4465;50.904;4.696;2023-07-28T04:30:11;18.10;99.90
8858;DHT22;4465;50.904;4.696;2023-07-28T04:32:37;18.10;99.90
8858;DHT22;4465;50.904;4.696;2023-07-28T04:35:03;18.20;99.90
8858;DHT22;4465;50.904;4.696;2023-07-28T04:37:30;18.20;99.90
8858;DHT22;4465;50.904;4.696;2023-07-28T04:39:59;18.20;99.90
8858;DHT22;4465;50.904;4.696;2023-07-28T04:42:25;18.20;99.90
8858;DHT22;4465;50.904;4.696;2023-07-28T04:44:51;18.20;99.90
8858;DHT22;4465;50.904;4.696;2023-07-28T04:47:16;18.20;99.90
8858;DHT22;4465;50.904;4.696;2023-07-28T04:49:42;18.20;99.90
8858;DHT22;4465;50.904;4.696;2023-07-28T04:52:08;18.20;99.90
8858;DHT22;4465;50.904;4.696;2023-07-28T04:54:37;18.20;99.90
8858;DHT22;4465;50.904;4.696;2023-07-28T04:57:03;18.20;99.90
8858;DHT22;4465;50.904;4.696;2023-07-28T04:59:29;18.20;99.90
8858;DHT22;4465;50.904;4.696;2023-07-28T05:01:54;18.20;99.90
8858;DHT22;4465;50.904;4.696;2023-07-28T05:04:22;18.20;99.90
8858;DHT22;4465;50.904;4.696;2023-07-28T05:06:51;18.20;99.90
8858;DHT22;4465;50.904;4.696;2023-07-28T05:09:17;18.20;99.90
8858;DHT22;4465;50.904;4.696;2023-07-28T05:11:45;18.30;99.90
8858;DHT22;4465;50.904;4.696;2023-07-28T05:14:13;18.20;99.90
8858;DHT22;4465;50.904;4.696;2023-07-28T05:16:42;18.30;99.90
8858;DHT22;4465;50.904;4.696;2023-07-28T05:19:11;18.30;99.90
8858;DHT22;4465;50.904;4.696;2023-07-28T05:21:38;18.30;99.90
8858;DHT22;4465;50.904;4.696;2023-07-28T05:24:09;18.30;99.90
8858;DHT22;4465;50.904;4.696;2023-07-28T05:26:35;18.30;99.90
8858;DHT22;4465;50.904;4.696;2023-07-28T05:29:01;18.30;99.90
8858;DHT22;4465;50.904;4.696;2023-07-28T05:31:27;18.30;99.90
8858;DHT22;4465;50.904;4.696;2023-07-28T05:33:55;18.30;99.90
8858;DHT22;4465;50.904;4.696;2023-07-28T05:36:21;18.40;99.90
8858;DHT22;4465;50.904;4.696;2023-07-28T05:38:47;18.40;99.90
8858;DHT22;4465;50.904;4.696;2023-07-28T05:41:15;18.40;99.90
8858;DHT22;4465;50.904;4.696;2023-07-28T05:43:41;18.40;99.90
8858;DHT22;4465;50.904;4.696;2023-07-28T05:46:12;18.40;99.90
8858;DHT22;4465;50.904;4.696;2023-07-28T05:48:40;18.50;99.90
8858;DHT22;4465;50.904;4.696;2023-07-28T05:51:05;18.50;99.90
8858;DHT22;4465;50.904;4.696;2023-07-28T05:53:31;18.50;99.90
8858;DHT22;4465;50.904;4.696;2023-07-28T05:55:58;18.50;99.90
8858;DHT22;4465;50.904;4.696;2023-07-28T05:58:24;18.60;99.90
8858;DHT22;4465;50.904;4.696;2023-07-28T06:00:52;18.60;99.90
8858;DHT22;4465;50.904;4.696;2023-07-28T06:03:18;18.60;99.90
8858;DHT22;4465;50.904;4.696;2023-07-28T06:05:46;18.60;99.90
8858;DHT22;4465;50.904;4.696;2023-07-28T06:08:14;18.60;99.90
8858;DHT22;4465;50.904;4.696;2023-07-28T06:10:42;18.70;99.90
8858;DHT22;4465;50.904;4.696;2023-07-28T06:13:08;18.70;99.90
8858;DHT22;4465;50.904;4.696;2023-07-28T06:15:34;18.70;99.90
8858;DHT22;4465;50.904;4.696;2023-07-28T06:18:01;18.70;99.90
8858;DHT22;4465;50.904;4.696;2023-07-28T06:20:30;18.70;99.90
8858;DHT22;4465;50.904;4.696;2023-07-28T06:22:58;18.80;99.90
8858;DHT22;4465;50.904;4.696;2023-07-28T06:25:24;18.80;99.90
8858;DHT22;4465;50.904;4.696;2023-07-28T06:27:54;18.80;99.90
8858;DHT22;4465;50.904;4.696;2023-07-28T06:30:20;18.80;99.90
8858;DHT22;4465;50.904;4.696;2023-07-28T06:32:51;18.90;99.90
8858;DHT22;4465;50.904;4.696;2023-07-28T06:35:17;18.90;99.90
8858;DHT22;4465;50.904;4.696;2023-07-28T06:37:43;18.80;99.90
8858;DHT22;4465;50.904;4.696;2023-07-28T06:40:09;18.90;99.90
8858;DHT22;4465;50.904;4.696;2023-07-28T06:42:36;18.90;99.90
8858;DHT22;4465;50.904;4.696;2023-07-28T06:45:05;18.90;99.90
8858;DHT22;4465;50.904;4.696;2023-07-28T06:47:34;18.90;99.90
8858;DHT22;4465;50.904;4.696;2023-07-28T06:50:00;19.00;99.90
8858;DHT22;4465;50.904;4.696;2023-07-28T06:52:25;19.00;99.90
8858;DHT22;4465;50.904;4.696;2023-07-28T06:54:51;19.00;99.90
8858;DHT22;4465;50.904;4.696;2023-07-28T06:57:21;19.00;99.90
8858;DHT22;4465;50.904;4.696;2023-07-28T06:59:47;19.00;99.90
8858;DHT22;4465;50.904;4.696;2023-07-28T07:02:13;19.00;99.90
8858;DHT22;4465;50.904;4.696;2023-07-28T07:04:43;19.00;99.90
8858;DHT22;4465;50.904;4.696;2023-07-28T07:07:16;19.00;99.90
8858;DHT22;4465;50.904;4.696;2023-07-28T07:10:03;19.00;99.90
8858;DHT22;4465;50.904;4.696;2023-07-28T07:12:48;19.00;99.90
8858;DHT22;4465;50.904;4.696;2023-07-28T07:15:14;19.00;99.90
8858;DHT22;4465;50.904;4.696;2023-07-28T07:17:41;19.00;99.90
8858;DHT22;4465;50.904;4.696;2023-07-28T07:20:07;19.10;99.90
8858;DHT22;4465;50.904;4.696;2023-07-28T07:22:36;19.10;99.90
8858;DHT22;4465;50.904;4.696;2023-07-28T07:25:03;19.10;99.90
8858;DHT22;4465;50.904;4.696;2023-07-28T07:27:29;19.10;99.90
8858;DHT22;4465;50.904;4.696;2023-07-28T07:29:57;19.10;99.90
8858;DHT22;4465;50.904;4.696;2023-07-28T07:32:26;19.20;99.90
8858;DHT22;4465;50.904;4.696;2023-07-28T07:34:57;19.20;99.90
8858;DHT22;4465;50.904;4.696;2023-07-28T07:37:25;19.30;99.90
8858;DHT22;4465;50.904;4.696;2023-07-28T07:39:50;19.30;99.90
8858;DHT22;4465;50.904;4.696;2023-07-28T07:42:16;19.40;99.90
8858;DHT22;4465;50.904;4.696;2023-07-28T07:44:44;19.40;99.90
8858;DHT22;4465;50.904;4.696;2023-07-28T07:47:14;19.40;99.90
8858;DHT22;4465;50.904;4.696;2023-07-28T07:49:44;19.40;99.90
8858;DHT22;4465;50.904;4.696;2023-07-28T07:52:10;19.40;99.90
8858;DHT22;4465;50.904;4.696;2023-07-28T07:54:38;19.40;99.90
8858;DHT22;4465;50.904;4.696;2023-07-28T07:57:04;19.50;99.90
8858;DHT22;4465;50.904;4.696;2023-07-28T07:59:30;19.50;99.90
8858;DHT22;4465;50.904;4.696;2023-07-28T08:01:59;19.60;99.90
8858;DHT22;4465;50.904;4.696;2023-07-28T08:04:28;19.60;99.90
8858;DHT22;4465;50.904;4.696;2023-07-28T08:06:54;19.60;99.90
8858;DHT22;4465;50.904;4.696;2023-07-28T08:09:20;19.60;99.90
8858;DHT22;4465;50.904;4.696;2023-07-28T08:11:46;19.70;99.90
8858;DHT22;4465;50.904;4.696;2023-07-28T08:14:12;19.70;99.90
8858;DHT22;4465;50.904;4.696;2023-07-28T08:16:38;19.80;99.90
8858;DHT22;4465;50.904;4.696;2023-07-28T08:19:04;19.90;99.90
8858;DHT22;4465;50.904;4.696;2023-07-28T08:21:30;20.00;99.90
8858;DHT22;4465;50.904;4.696;2023-07-28T08:24:04;20.00;99.90
8858;DHT22;4465;50.904;4.696;2023-07-28T08:26:30;20.00;99.90
8858;DHT22;4465;50.904;4.696;2023-07-28T08:28:58;20.00;99.90
8858;DHT22;4465;50.904;4.696;2023-07-28T08:31:24;20.00;99.90
8858;DHT22;4465;50.904;4.696;2023-07-28T08:33:50;20.00;99.90
8858;DHT22;4465;50.904;4.696;2023-07-28T08:36:16;20.00;99.90
8858;DHT22;4465;50.904;4.696;2023-07-28T08:38:44;20.00;99.90
8858;DHT22;4465;50.904;4.696;2023-07-28T08:41:12;20.10;99.90
8858;DHT22;4465;50.904;4.696;2023-07-28T08:43:38;20.10;99.90
8858;DHT22;4465;50.904;4.696;2023-07-28T08:46:06;20.10;99.90
8858;DHT22;4465;50.904;4.696;2023-07-28T08:48:32;20.20;99.90
8858;DHT22;4465;50.904;4.696;2023-07-28T08:51:02;20.20;99.90
8858;DHT22;4465;50.904;4.696;2023-07-28T08:53:28;20.30;99.90
8858;DHT22;4465;50.904;4.696;2023-07-28T08:55:54;20.30;99.90
8858;DHT22;4465;50.904;4.696;2023-07-28T08:58:21;20.30;99.90
8858;DHT22;4465;50.904;4.696;2023-07-28T09:00:47;20.40;99.90
8858;DHT22;4465;50.904;4.696;2023-07-28T09:03:16;20.40;99.90
8858;DHT22;4465;50.904;4.696;2023-07-28T09:05:45;20.40;99.90
8858;DHT22;4465;50.904;4.696;2023-07-28T09:08:18;20.40;99.90
8858;DHT22;4465;50.904;4.696;2023-07-28T09:10:50;20.50;99.90
8858;DHT22;4465;50.904;4.696;2023-07-28T09:13:18;20.60;99.90
8858;DHT22;4465;50.904;4.696;2023-07-28T09:15:45;20.60;99.90
8858;DHT22;4465;50.904;4.696;2023-07-28T09:18:14;20.60;99.90
8858;DHT22;4465;50.904;4.696;2023-07-28T09:20:41;20.60;99.90
8858;DHT22;4465;50.904;4.696;2023-07-28T09:23:13;20.70;99.90
8858;DHT22;4465;50.904;4.696;2023-07-28T09:25:40;20.70;99.90
8858;DHT22;4465;50.904;4.696;2023-07-28T09:28:06;20.70;99.90
8858;DHT22;4465;50.904;4.696;2023-07-28T09:30:48;20.60;99.90
8858;DHT22;4465;50.904;4.696;2023-07-28T09:33:29;20.60;99.90
8858;DHT22;4465;50.904;4.696;2023-07-28T09:36:10;20.50;99.90
8858;DHT22;4465;50.904;4.696;2023-07-28T09:38:38;20.60;99.90
8858;DHT22;4465;50.904;4.696;2023-07-28T09:41:08;20.50;99.90
8858;DHT22;4465;50.904;4.696;2023-07-28T09:43:39;20.40;99.90
8858;DHT22;4465;50.904;4.696;2023-07-28T09:46:08;20.40;99.90
8858;DHT22;4465;50.904;4.696;2023-07-28T09:48:38;20.40;99.90
8858;DHT22;4465;50.904;4.696;2023-07-28T09:57:39;20.30;99.90
8858;DHT22;4465;50.904;4.696;2023-07-28T10:00:08;20.40;99.90
8858;DHT22;4465;50.904;4.696;2023-07-28T10:02:37;20.40;99.90
8858;DHT22;4465;50.904;4.696;2023-07-28T10:05:05;20.40;99.90
8858;DHT22;4465;50.904;4.696;2023-07-28T10:07:35;20.40;99.90
8858;DHT22;4465;50.904;4.696;2023-07-28T10:10:07;20.50;99.90
8858;DHT22;4465;50.904;4.696;2023-07-28T10:12:52;20.40;99.90
8858;DHT22;4465;50.904;4.696;2023-07-28T10:15:28;20.40;99.90
8858;DHT22;4465;50.904;4.696;2023-07-28T10:17:55;20.40;99.90
8858;DHT22;4465;50.904;4.696;2023-07-28T10:20:35;20.30;99.90
8858;DHT22;4465;50.904;4.696;2023-07-28T10:23:15;20.30;99.90
8858;DHT22;4465;50.904;4.696;2023-07-28T10:25:45;20.30;99.90
8858;DHT22;4465;50.904;4.696;2023-07-28T10:28:40;20.40;99.90
8858;DHT22;4465;50.904;4.696;2023-07-28T10:31:14;20.50;99.90
8858;DHT22;4465;50.904;4.696;2023-07-28T10:33:46;20.60;99.90
8858;DHT22;4465;50.904;4.696;2023-07-28T10:39:15;20.80;99.90
8858;DHT22;4465;50.904;4.696;2023-07-28T10:42:04;20.80;99.90
8858;DHT22;4465;50.904;4.696;2023-07-28T10:44:31;20.80;99.90
8858;DHT22;4465;50.904;4.696;2023-07-28T10:46:57;20.80;99.90
8858;DHT22;4465;50.904;4.696;2023-07-28T10:49:24;20.80;99.90
8858;DHT22;4465;50.904;4.696;2023-07-28T10:51:51;20.80;99.90
8858;DHT22;4465;50.904;4.696;2023-07-28T10:54:19;20.90;99.90
8858;DHT22;4465;50.904;4.696;2023-07-28T10:56:47;20.90;99.90
8858;DHT22;4465;50.904;4.696;2023-07-28T10:59:14;21.00;99.90
8858;DHT22;4465;50.904;4.696;2023-07-28T11:01:41;21.00;99.90
8858;DHT22;4465;50.904;4.696;2023-07-28T11:04:19;20.90;99.90
8858;DHT22;4465;50.904;4.696;2023-07-28T11:06:46;20.90;99.90
8858;DHT22;4465;50.904;4.696;2023-07-28T11:09:16;21.00;99.90
8858;DHT22;4465;50.904;4.696;2023-07-28T11:11:45;21.00;99.90
8858;DHT22;4465;50.904;4.696;2023-07-28T11:14:11;21.00;99.90
8858;DHT22;4465;50.904;4.696;2023-07-28T11:16:41;21.10;99.90
8858;DHT22;4465;50.904;4.696;2023-07-28T11:19:13;21.30;99.90
8858;DHT22;4465;50.904;4.696;2023-07-28T11:21:41;21.30;99.90
8858;DHT22;4465;50.904;4.696;2023-07-28T11:24:07;21.40;99.90
8858;DHT22;4465;50.904;4.696;2023-07-28T11:26:42;21.50;99.90
8858;DHT22;4465;50.904;4.696;2023-07-28T11:29:08;21.50;99.90
8858;DHT22;4465;50.904;4.696;2023-07-28T11:31:34;21.50;99.90
8858;DHT22;4465;50.904;4.696;2023-07-28T11:34:00;21.50;99.90
8858;DHT22;4465;50.904;4.696;2023-07-28T11:36:31;21.50;99.90
8858;DHT22;4465;50.904;4.696;2023-07-28T11:38:59;21.50;99.90
8858;DHT22;4465;50.904;4.696;2023-07-28T11:41:27;21.40;99.90
8858;DHT22;4465;50.904;4.696;2023-07-28T11:43:53;21.40;99.90
8858;DHT22;4465;50.904;4.696;2023-07-28T11:46:40;21.30;99.90
8858;DHT22;4465;50.904;4.696;2023-07-28T11:49:19;21.30;99.90
8858;DHT22;4465;50.904;4.696;2023-07-28T11:51:50;21.20;99.90
8858;DHT22;4465;50.904;4.696;2023-07-28T11:54:22;21.30;99.90
8858;DHT22;4465;50.904;4.696;2023-07-28T11:56:55;21.30;99.90
8858;DHT22;4465;50.904;4.696;2023-07-28T11:59:24;21.30;99.90
8858;DHT22;4465;50.904;4.696;2023-07-28T12:02:00;21.40;99.90
8858;DHT22;4465;50.904;4.696;2023-07-28T12:04:30;21.40;99.90
8858;DHT22;4465;50.904;4.696;2023-07-28T12:12:12;21.50;99.90
8858;DHT22;4465;50.904;4.696;2023-07-28T12:14:38;21.50;99.90
8858;DHT22;4465;50.904;4.696;2023-07-28T12:17:17;21.50;99.90
8858;DHT22;4465;50.904;4.696;2023-07-28T12:20:07;21.60;99.90
8858;DHT22;4465;50.904;4.696;2023-07-28T12:22:43;21.50;99.90
8858;DHT22;4465;50.904;4.696;2023-07-28T12:25:10;21.50;99.90
8858;DHT22;4465;50.904;4.696;2023-07-28T12:27:36;21.50;99.90
8858;DHT22;4465;50.904;4.696;2023-07-28T12:30:03;21.60;99.90
8858;DHT22;4465;50.904;4.696;2023-07-28T12:32:30;21.70;99.90
8858;DHT22;4465;50.904;4.696;2023-07-28T12:34:56;22.00;99.90
8858;DHT22;4465;50.904;4.696;2023-07-28T12:37:21;22.20;99.90
8858;DHT22;4465;50.904;4.696;2023-07-28T12:39:50;22.50;99.90
8858;DHT22;4465;50.904;4.696;2023-07-28T12:42:16;22.70;99.90
8858;DHT22;4465;50.904;4.696;2023-07-28T12:44:44;22.90;99.90
8858;DHT22;4465;50.904;4.696;2023-07-28T12:47:15;23.00;99.90
8858;DHT22;4465;50.904;4.696;2023-07-28T12:49:43;23.00;99.90
8858;DHT22;4465;50.904;4.696;2023-07-28T12:52:09;22.90;99.90
8858;DHT22;4465;50.904;4.696;2023-07-28T12:54:35;22.80;99.90
8858;DHT22;4465;50.904;4.696;2023-07-28T12:57:01;22.70;99.90
8858;DHT22;4465;50.904;4.696;2023-07-28T12:59:27;22.60;99.90
8858;DHT22;4465;50.904;4.696;2023-07-28T13:01:56;22.50;99.90
8858;DHT22;4465;50.904;4.696;2023-07-28T13:04:22;22.50;99.90
8858;DHT22;4465;50.904;4.696;2023-07-28T13:06:47;22.40;99.90
8858;DHT22;4465;50.904;4.696;2023-07-28T13:09:13;22.40;99.90
8858;DHT22;4465;50.904;4.696;2023-07-28T13:11:39;22.40;99.90
8858;DHT22;4465;50.904;4.696;2023-07-28T13:14:05;22.50;99.90
8858;DHT22;4465;50.904;4.696;2023-07-28T13:16:31;22.60;99.90
8858;DHT22;4465;50.904;4.696;2023-07-28T13:18:57;22.80;99.90
8858;DHT22;4465;50.904;4.696;2023-07-28T13:21:27;23.00;99.90
8858;DHT22;4465;50.904;4.696;2023-07-28T13:23:53;23.30;99.90
8858;DHT22;4465;50.904;4.696;2023-07-28T13:26:19;23.50;99.90
8858;DHT22;4465;50.904;4.696;2023-07-28T13:28:47;23.60;99.90
8858;DHT22;4465;50.904;4.696;2023-07-28T13:31:18;23.70;99.90
8858;DHT22;4465;50.904;4.696;2023-07-28T13:33:44;23.60;99.90
8858;DHT22;4465;50.904;4.696;2023-07-28T13:36:11;23.50;99.90
8858;DHT22;4465;50.904;4.696;2023-07-28T13:38:37;23.50;99.90
8858;DHT22;4465;50.904;4.696;2023-07-28T13:41:05;23.30;99.90
8858;DHT22;4465;50.904;4.696;2023-07-28T13:43:32;23.20;99.90
8858;DHT22;4465;50.904;4.696;2023-07-28T13:46:03;23.10;99.90
8858;DHT22;4465;50.904;4.696;2023-07-28T13:48:30;23.10;99.90
8858;DHT22;4465;50.904;4.696;2023-07-28T13:50:57;23.10;99.90
8858;DHT22;4465;50.904;4.696;2023-07-28T13:53:23;23.00;99.90
8858;DHT22;4465;50.904;4.696;2023-07-28T13:55:50;22.90;99.90
8858;DHT22;4465;50.904;4.696;2023-07-28T13:58:16;22.90;99.90
8858;DHT22;4465;50.904;4.696;2023-07-28T14:00:42;22.80;99.90
8858;DHT22;4465;50.904;4.696;2023-07-28T14:03:08;22.70;99.90
8858;DHT22;4465;50.904;4.696;2023-07-28T14:05:35;22.60;99.90
8858;DHT22;4465;50.904;4.696;2023-07-28T14:08:03;22.50;99.90
8858;DHT22;4465;50.904;4.696;2023-07-28T14:10:29;22.50;99.90
8858;DHT22;4465;50.904;4.696;2023-07-28T14:12:58;22.50;99.90
8858;DHT22;4465;50.904;4.696;2023-07-28T14:15:24;22.40;99.90
8858;DHT22;4465;50.904;4.696;2023-07-28T14:17:50;22.50;99.90
8858;DHT22;4465;50.904;4.696;2023-07-28T14:20:19;22.50;99.90
8858;DHT22;4465;50.904;4.696;2023-07-28T14:22:48;22.60;99.90
8858;DHT22;4465;50.904;4.696;2023-07-28T14:25:16;22.70;99.90
8858;DHT22;4465;50.904;4.696;2023-07-28T14:27:42;22.70;99.90
8858;DHT22;4465;50.904;4.696;2023-07-28T14:30:12;22.80;99.90
8858;DHT22;4465;50.904;4.696;2023-07-28T14:32:38;22.90;99.90
8858;DHT22;4465;50.904;4.696;2023-07-28T14:35:04;22.90;99.90
8858;DHT22;4465;50.904;4.696;2023-07-28T14:37:30;23.00;99.90
8858;DHT22;4465;50.904;4.696;2023-07-28T14:39:56;23.00;99.90
8858;DHT22;4465;50.904;4.696;2023-07-28T14:42:22;23.00;99.90
8858;DHT22;4465;50.904;4.696;2023-07-28T14:44:50;23.00;99.90
8858;DHT22;4465;50.904;4.696;2023-07-28T14:47:16;23.00;99.90
8858;DHT22;4465;50.904;4.696;2023-07-28T14:49:44;23.00;99.90
8858;DHT22;4465;50.904;4.696;2023-07-28T14:52:15;23.00;99.90
8858;DHT22;4465;50.904;4.696;2023-07-28T14:54:45;22.90;99.90
8858;DHT22;4465;50.904;4.696;2023-07-28T14:57:11;22.90;99.90
8858;DHT22;4465;50.904;4.696;2023-07-28T14:59:40;22.90;99.90
8858;DHT22;4465;50.904;4.696;2023-07-28T15:02:06;22.90;99.90
8858;DHT22;4465;50.904;4.696;2023-07-28T15:04:32;23.00;99.90
8858;DHT22;4465;50.904;4.696;2023-07-28T15:06:58;23.00;99.90
8858;DHT22;4465;50.904;4.696;2023-07-28T15:09:27;23.10;99.90
8858;DHT22;4465;50.904;4.696;2023-07-28T15:11:55;23.20;99.90
8858;DHT22;4465;50.904;4.696;2023-07-28T15:14:23;23.20;99.90
8858;DHT22;4465;50.904;4.696;2023-07-28T15:16:51;23.20;99.90
8858;DHT22;4465;50.904;4.696;2023-07-28T15:19:17;23.10;99.90
8858;DHT22;4465;50.904;4.696;2023-07-28T15:21:45;23.20;99.90
8858;DHT22;4465;50.904;4.696;2023-07-28T15:24:13;23.20;99.90
8858;DHT22;4465;50.904;4.696;2023-07-28T15:26:42;23.10;99.90
8858;DHT22;4465;50.904;4.696;2023-07-28T15:29:12;23.20;99.90
8858;DHT22;4465;50.904;4.696;2023-07-28T15:31:39;23.20;99.90
8858;DHT22;4465;50.904;4.696;2023-07-28T15:34:05;23.20;99.90
8858;DHT22;4465;50.904;4.696;2023-07-28T15:36:31;23.20;99.90
8858;DHT22;4465;50.904;4.696;2023-07-28T15:38:59;23.20;99.90
8858;DHT22;4465;50.904;4.696;2023-07-28T15:41:25;23.20;99.90
8858;DHT22;4465;50.904;4.696;2023-07-28T15:43:51;23.20;99.90
8858;DHT22;4465;50.904;4.696;2023-07-28T15:46:22;23.30;99.90
8858;DHT22;4465;50.904;4.696;2023-07-28T15:48:48;23.30;99.90
8858;DHT22;4465;50.904;4.696;2023-07-28T15:51:13;23.30;99.90
8858;DHT22;4465;50.904;4.696;2023-07-28T15:53:43;23.30;99.90
8858;DHT22;4465;50.904;4.696;2023-07-28T15:56:10;23.40;99.90
8858;DHT22;4465;50.904;4.696;2023-07-28T15:58:36;23.30;99.90
8858;DHT22;4465;50.904;4.696;2023-07-28T16:01:02;23.30;99.90
8858;DHT22;4465;50.904;4.696;2023-07-28T16:03:28;23.40;99.90
8858;DHT22;4465;50.904;4.696;2023-07-28T16:05:56;23.40;99.90
8858;DHT22;4465;50.904;4.696;2023-07-28T16:08:23;23.50;99.90
8858;DHT22;4465;50.904;4.696;2023-07-28T16:10:49;23.50;99.90
8858;DHT22;4465;50.904;4.696;2023-07-28T16:13:15;23.40;99.90
8858;DHT22;4465;50.904;4.696;2023-07-28T16:15:43;23.40;99.90
8858;DHT22;4465;50.904;4.696;2023-07-28T16:18:11;23.40;99.90
8858;DHT22;4465;50.904;4.696;2023-07-28T16:20:37;23.40;99.90
8858;DHT22;4465;50.904;4.696;2023-07-28T16:23:03;23.40;99.90
8858;DHT22;4465;50.904;4.696;2023-07-28T16:25:29;23.40;99.90
8858;DHT22;4465;50.904;4.696;2023-07-28T16:27:58;23.40;99.90